createdAt,value
2019-03-20T00:00:44.765Z,99.90
2019-03-20T00:03:12.152Z,99.90
2019-03-20T00:05:39.475Z,99.90
2019-03-20T00:08:06.960Z,99.90
2019-03-20T00:10:34.348Z,99.90
2019-03-20T00:13:01.669Z,99.90
2019-03-20T00:15:29.050Z,99.90
2019-03-20T00:17:56.375Z,99.90
2019-03-20T00:20:23.761Z,99.90
2019-03-20T00:22:51.149Z,99.90
2019-03-20T00:25:18.547Z,99.90
2019-03-20T00:27:46.153Z,99.90
2019-03-20T00:30:13.677Z,99.90
2019-03-20T00:32:40.965Z,99.90
2019-03-20T00:35:08.334Z,99.90
2019-03-20T00:37:35.918Z,99.90
2019-03-20T00:40:04.686Z,99.90
2019-03-20T00:42:32.326Z,99.90
2019-03-20T00:44:59.896Z,99.90
2019-03-20T00:47:27.219Z,99.90
2019-03-20T00:49:54.876Z,99.90
2019-03-20T00:52:22.203Z,99.90
2019-03-20T00:54:49.619Z,99.90
2019-03-20T00:57:16.932Z,99.90
2019-03-20T00:59:44.245Z,99.90
2019-03-20T01:02:11.911Z,99.90
2019-03-20T01:04:39.490Z,99.90
2019-03-20T01:07:06.957Z,99.90
2019-03-20T01:09:34.248Z,99.90
2019-03-20T01:12:01.547Z,99.90
2019-03-20T01:14:29.131Z,99.90
2019-03-20T01:16:56.509Z,99.90
2019-03-20T01:19:23.947Z,99.90
2019-03-20T01:21:51.621Z,99.90
2019-03-20T01:24:19.275Z,99.90
2019-03-20T01:26:46.478Z,99.90
2019-03-20T01:29:13.785Z,99.90
2019-03-20T01:31:41.131Z,99.90
2019-03-20T01:34:08.568Z,99.90
2019-03-20T01:36:36.189Z,99.90
2019-03-20T01:39:05.893Z,99.90
2019-03-20T01:41:38.087Z,99.90
2019-03-20T01:44:02.466Z,99.90
2019-03-20T01:46:30.382Z,99.90
2019-03-20T01:48:57.919Z,99.90
2019-03-20T01:51:25.459Z,99.90
2019-03-20T01:53:52.749Z,99.90
2019-03-20T01:56:20.055Z,99.90
2019-03-20T01:58:47.480Z,99.90
2019-03-20T02:01:15.107Z,99.90
2019-03-20T02:03:42.425Z,99.90
2019-03-20T02:06:10.086Z,99.90
2019-03-20T02:08:37.651Z,99.90
2019-03-20T02:11:05.219Z,99.90
2019-03-20T02:13:32.772Z,99.90
2019-03-20T02:16:00.473Z,99.90
2019-03-20T02:18:28.042Z,99.90
2019-03-20T02:20:55.596Z,99.90
2019-03-20T02:23:23.150Z,99.90
2019-03-20T02:25:50.482Z,99.90
2019-03-20T02:28:18.279Z,99.90
2019-03-20T02:30:45.574Z,99.90
2019-03-20T02:33:13.187Z,99.90
2019-03-20T02:35:51.329Z,99.90
2019-03-20T02:38:09.913Z,99.90
2019-03-20T02:40:37.210Z,99.90
2019-03-20T02:43:04.519Z,99.90
2019-03-20T02:45:31.952Z,99.90
2019-03-20T02:47:59.328Z,99.90
2019-03-20T02:50:26.730Z,99.90
2019-03-20T02:52:54.149Z,99.90
2019-03-20T02:55:21.803Z,99.90
2019-03-20T02:57:49.661Z,99.90
2019-03-20T03:00:17.002Z,99.90
2019-03-20T03:02:44.484Z,99.90
2019-03-20T03:05:12.132Z,99.90
2019-03-20T03:07:39.543Z,99.90
2019-03-20T03:10:08.188Z,99.90
2019-03-20T03:12:35.490Z,99.90
2019-03-20T03:15:03.663Z,99.90
2019-03-20T03:17:30.983Z,99.90
2019-03-20T03:19:58.375Z,99.90
2019-03-20T03:22:25.791Z,99.90
2019-03-20T03:24:53.212Z,99.90
2019-03-20T03:27:20.770Z,99.90
2019-03-20T03:29:48.085Z,99.90
2019-03-20T03:32:15.504Z,99.90
2019-03-20T03:34:43.507Z,99.90
2019-03-20T03:37:10.900Z,99.90
2019-03-20T03:39:38.592Z,99.90
2019-03-20T03:42:06.246Z,99.90
2019-03-20T03:44:33.546Z,99.90
2019-03-20T03:47:00.921Z,99.90
2019-03-20T03:49:28.337Z,99.90
2019-03-20T03:51:55.744Z,99.90
2019-03-20T03:54:23.281Z,99.90
2019-03-20T03:56:51.295Z,99.90
2019-03-20T03:59:18.847Z,99.90
2019-03-20T04:01:46.262Z,99.90
2019-03-20T04:04:13.929Z,99.90
2019-03-20T04:06:41.509Z,99.90
2019-03-20T04:09:08.818Z,99.90
2019-03-20T04:11:36.133Z,99.90
2019-03-20T04:14:03.757Z,99.90
2019-03-20T04:16:31.136Z,99.90
2019-03-20T04:18:58.541Z,99.90
2019-03-20T04:21:25.938Z,99.90
2019-03-20T04:23:53.785Z,99.90
2019-03-20T04:26:21.515Z,99.90
2019-03-20T04:28:48.904Z,99.90
2019-03-20T04:31:16.530Z,99.90
2019-03-20T04:33:43.919Z,99.90
2019-03-20T04:36:11.233Z,99.90
2019-03-20T04:38:38.626Z,99.90
2019-03-20T04:41:05.901Z,99.90
2019-03-20T04:43:33.216Z,99.90
2019-03-20T04:46:00.694Z,99.90
2019-03-20T04:48:28.072Z,99.90
2019-03-20T04:50:55.463Z,99.90
2019-03-20T04:53:22.836Z,99.90
2019-03-20T04:55:50.665Z,99.90
2019-03-20T04:58:17.986Z,99.90
2019-03-20T05:00:45.858Z,99.90
2019-03-20T05:03:13.179Z,99.90
2019-03-20T05:05:40.874Z,99.90
2019-03-20T05:08:08.332Z,99.90
2019-03-20T05:10:35.711Z,99.90
2019-03-20T05:13:03.049Z,99.90
2019-03-20T05:15:30.725Z,99.90
2019-03-20T05:17:58.140Z,99.90
2019-03-20T05:20:25.484Z,99.90
2019-03-20T05:22:53.053Z,99.90
2019-03-20T05:25:20.331Z,99.90
2019-03-20T05:27:47.771Z,99.90
2019-03-20T05:30:15.415Z,99.90
2019-03-20T05:32:43.024Z,99.90
2019-03-20T05:35:10.421Z,99.90
2019-03-20T05:37:38.042Z,99.90
2019-03-20T05:40:05.688Z,99.90
2019-03-20T05:42:33.051Z,99.90
2019-03-20T05:45:00.397Z,99.90
2019-03-20T05:47:28.028Z,99.90
2019-03-20T05:49:55.411Z,99.90
2019-03-20T05:52:22.788Z,99.90
2019-03-20T05:54:50.119Z,99.90
2019-03-20T05:57:17.786Z,99.90
2019-03-20T05:59:45.184Z,99.90
2019-03-20T06:02:12.762Z,99.90
2019-03-20T06:04:40.690Z,99.90
2019-03-20T06:07:08.087Z,99.90
2019-03-20T06:09:35.728Z,99.90
2019-03-20T06:12:03.128Z,99.90
2019-03-20T06:14:30.699Z,99.90
2019-03-20T06:16:58.337Z,99.90
2019-03-20T06:19:25.656Z,99.90
2019-03-20T06:21:53.239Z,99.90
2019-03-20T06:24:20.655Z,99.90
2019-03-20T06:26:48.075Z,99.90
2019-03-20T06:29:15.991Z,99.90
2019-03-20T06:31:43.308Z,99.90
2019-03-20T06:34:10.909Z,99.90
2019-03-20T06:36:38.308Z,99.90
2019-03-20T06:39:06.931Z,99.90
2019-03-20T06:41:34.338Z,99.90
2019-03-20T06:44:01.983Z,99.90
2019-03-20T06:46:29.369Z,99.90
2019-03-20T06:48:56.664Z,99.90
2019-03-20T06:51:24.233Z,99.90
2019-03-20T06:53:51.537Z,99.90
2019-03-20T06:56:18.936Z,99.90
2019-03-20T06:58:46.321Z,99.90
2019-03-20T07:01:23.922Z,99.90
2019-03-20T07:04:13.136Z,99.90
2019-03-20T07:06:51.355Z,99.90
2019-03-20T07:09:28.916Z,99.90
2019-03-20T07:11:56.225Z,99.90
2019-03-20T07:14:25.369Z,99.90
2019-03-20T07:16:52.756Z,99.90
2019-03-20T07:19:20.067Z,99.90
2019-03-20T07:21:47.506Z,99.90
2019-03-20T07:24:14.902Z,99.90
2019-03-20T07:26:42.468Z,99.90
2019-03-20T07:29:10.050Z,99.90
2019-03-20T07:31:37.591Z,99.90
2019-03-20T07:34:05.169Z,99.90
2019-03-20T07:36:32.578Z,99.90
2019-03-20T07:39:00.240Z,99.90
2019-03-20T07:41:28.091Z,99.90
2019-03-20T07:43:55.497Z,99.90
2019-03-20T07:46:22.860Z,99.90
2019-03-20T07:48:50.453Z,99.90
2019-03-20T07:51:17.830Z,99.90
2019-03-20T07:53:45.179Z,99.90
2019-03-20T07:56:13.030Z,99.90
2019-03-20T07:58:40.429Z,99.90
2019-03-20T08:01:07.824Z,99.90
2019-03-20T08:03:35.196Z,99.90
2019-03-20T08:06:02.889Z,99.90
2019-03-20T08:08:30.534Z,99.90
2019-03-20T08:10:58.027Z,99.90
2019-03-20T08:13:25.634Z,99.90
2019-03-20T08:15:52.934Z,99.90
2019-03-20T08:18:20.233Z,99.90
2019-03-20T08:20:47.882Z,99.90
2019-03-20T08:23:15.330Z,99.90
2019-03-20T08:25:42.636Z,99.60
2019-03-20T08:28:09.938Z,99.90
2019-03-20T08:30:37.326Z,99.70
2019-03-20T08:33:05.206Z,99.70
2019-03-20T08:35:32.771Z,99.90
2019-03-20T08:38:00.124Z,99.90
2019-03-20T08:40:27.502Z,99.70
2019-03-20T08:42:54.880Z,99.20
2019-03-20T08:45:22.453Z,98.90
2019-03-20T08:47:49.812Z,99.30
2019-03-20T08:50:17.881Z,99.50
2019-03-20T08:52:45.492Z,99.40
2019-03-20T08:55:13.060Z,99.90
2019-03-20T08:57:40.659Z,99.70
2019-03-20T09:00:11.483Z,99.90
2019-03-20T09:02:38.768Z,99.90
2019-03-20T09:05:07.524Z,99.90
2019-03-20T09:07:35.188Z,99.90
2019-03-20T09:10:03.177Z,99.90
2019-03-20T09:12:30.764Z,99.60
2019-03-20T09:14:58.352Z,99.80
2019-03-20T09:17:25.923Z,99.30
2019-03-20T09:19:53.368Z,98.90
2019-03-20T09:22:20.716Z,99.10
2019-03-20T09:24:48.361Z,99.70
2019-03-20T09:27:16.076Z,99.90
2019-03-20T09:29:43.783Z,98.80
2019-03-20T09:32:11.090Z,97.50
2019-03-20T09:34:38.446Z,98.40
2019-03-20T09:37:05.855Z,98.50
2019-03-20T09:39:33.180Z,98.20
2019-03-20T09:42:00.495Z,97.50
2019-03-20T09:44:27.898Z,96.00
2019-03-20T09:46:55.225Z,96.40
2019-03-20T09:49:22.661Z,96.00
2019-03-20T09:51:50.083Z,96.00
2019-03-20T09:54:17.533Z,96.10
2019-03-20T09:56:44.852Z,96.40
2019-03-20T09:59:12.160Z,95.50
2019-03-20T10:01:39.576Z,93.70
2019-03-20T10:04:06.898Z,94.10
2019-03-20T10:06:34.784Z,93.00
2019-03-20T10:09:02.204Z,94.20
2019-03-20T10:11:29.625Z,93.50
2019-03-20T10:13:56.911Z,94.00
2019-03-20T10:16:24.475Z,93.20
2019-03-20T10:18:51.901Z,92.80
2019-03-20T10:21:19.837Z,92.40
2019-03-20T10:23:47.226Z,92.30
2019-03-20T10:26:14.578Z,91.30
2019-03-20T10:28:41.966Z,90.30
2019-03-20T10:31:09.977Z,92.50
2019-03-20T10:33:37.409Z,90.60
2019-03-20T10:36:05.112Z,84.80
2019-03-20T10:38:32.386Z,81.40
2019-03-20T10:40:59.722Z,79.00
2019-03-20T10:43:26.993Z,67.00
2019-03-20T10:45:54.285Z,64.50
2019-03-20T10:48:21.683Z,62.80
2019-03-20T10:50:49.050Z,73.70
2019-03-20T10:53:16.359Z,73.50
2019-03-20T10:55:43.762Z,76.00
2019-03-20T10:58:11.149Z,74.30
2019-03-20T11:00:40.798Z,71.40
2019-03-20T11:03:08.284Z,68.00
2019-03-20T11:05:35.677Z,70.40
2019-03-20T11:08:03.150Z,72.00
2019-03-20T11:10:30.546Z,69.70
2019-03-20T11:12:57.990Z,74.20
2019-03-20T11:15:25.816Z,69.60
2019-03-20T11:17:53.233Z,63.40
2019-03-20T11:20:21.333Z,60.20
2019-03-20T11:22:48.916Z,63.30
2019-03-20T11:25:17.325Z,58.70
2019-03-20T11:27:44.673Z,53.10
2019-03-20T11:30:17.899Z,52.60
2019-03-20T11:32:45.339Z,53.80
2019-03-20T11:35:13.284Z,55.00
2019-03-20T11:37:40.755Z,57.90
2019-03-20T11:40:10.871Z,63.00
2019-03-20T11:42:40.743Z,66.40
2019-03-20T11:45:08.762Z,68.20
2019-03-20T11:47:36.082Z,67.40
2019-03-20T11:50:06.673Z,61.60
2019-03-20T11:52:34.303Z,63.50
2019-03-20T11:55:01.887Z,56.90
2019-03-20T11:57:29.543Z,57.50
2019-03-20T11:59:57.154Z,55.50
2019-03-20T12:02:28.386Z,57.50
2019-03-20T12:04:54.504Z,61.20
2019-03-20T12:07:22.361Z,66.10
2019-03-20T12:09:49.644Z,63.70
2019-03-20T12:12:17.475Z,63.70
2019-03-20T12:14:45.330Z,62.20
2019-03-20T12:17:13.272Z,63.90
2019-03-20T12:19:44.836Z,64.90
2019-03-20T12:22:10.039Z,63.70
2019-03-20T12:24:37.437Z,71.60
2019-03-20T12:27:14.561Z,73.30
2019-03-20T12:29:34.260Z,67.00
2019-03-20T12:32:01.607Z,67.00
2019-03-20T12:34:28.985Z,64.90
2019-03-20T12:36:56.735Z,59.60
2019-03-20T12:39:24.238Z,64.80
2019-03-20T12:41:51.871Z,58.20
2019-03-20T12:44:19.173Z,58.50
2019-03-20T12:46:46.862Z,59.80
2019-03-20T12:49:14.520Z,61.90
2019-03-20T12:51:41.811Z,65.40
2019-03-20T12:54:09.165Z,71.70
2019-03-20T12:56:36.822Z,74.40
2019-03-20T12:59:04.487Z,76.70
2019-03-20T13:01:32.067Z,71.60
2019-03-20T13:03:59.426Z,68.30
2019-03-20T13:06:27.011Z,73.90
2019-03-20T13:08:54.685Z,69.30
2019-03-20T13:11:22.025Z,65.30
2019-03-20T13:13:49.666Z,54.50
2019-03-20T13:16:16.953Z,51.40
2019-03-20T13:18:44.333Z,52.40
2019-03-20T13:21:11.724Z,53.60
2019-03-20T13:23:39.272Z,55.60
2019-03-20T13:26:06.888Z,55.80
2019-03-20T13:28:34.547Z,56.60
2019-03-20T13:31:06.273Z,57.20
2019-03-20T13:33:33.753Z,50.40
2019-03-20T13:36:01.238Z,48.10
2019-03-20T13:38:28.657Z,45.60
2019-03-20T13:40:55.991Z,49.20
2019-03-20T13:43:23.416Z,52.90
2019-03-20T13:45:50.788Z,53.90
2019-03-20T13:48:18.113Z,53.50
2019-03-20T13:50:45.397Z,54.20
2019-03-20T13:53:14.999Z,52.70
2019-03-20T13:55:42.277Z,52.20
2019-03-20T13:58:10.178Z,53.10
2019-03-20T14:00:37.582Z,49.60
2019-03-20T14:03:04.875Z,50.20
2019-03-20T14:05:32.275Z,52.90
2019-03-20T14:07:59.670Z,53.60
2019-03-20T14:10:26.995Z,58.40
2019-03-20T14:12:54.337Z,54.60
2019-03-20T14:15:21.956Z,56.20
2019-03-20T14:17:49.629Z,65.20
2019-03-20T14:20:19.095Z,63.70
2019-03-20T14:22:46.521Z,67.80
2019-03-20T14:25:13.928Z,68.70
2019-03-20T14:27:41.636Z,64.60
2019-03-20T14:30:14.493Z,68.60
2019-03-20T14:32:41.884Z,62.90
2019-03-20T14:35:09.461Z,58.20
2019-03-20T14:37:37.377Z,62.40
2019-03-20T14:40:04.888Z,57.60
2019-03-20T14:42:32.467Z,58.70
2019-03-20T14:44:59.778Z,60.60
2019-03-20T14:47:27.069Z,63.20
2019-03-20T14:49:54.507Z,66.80
2019-03-20T14:52:21.909Z,65.30
2019-03-20T14:54:49.200Z,62.80
2019-03-20T14:57:16.519Z,65.60
2019-03-20T14:59:44.062Z,63.80
2019-03-20T15:02:11.754Z,60.90
2019-03-20T15:04:39.139Z,51.60
2019-03-20T15:07:06.457Z,47.00
2019-03-20T15:09:33.749Z,49.10
2019-03-20T15:12:01.087Z,51.70
2019-03-20T15:14:28.466Z,54.60
2019-03-20T15:16:55.904Z,60.80
2019-03-20T15:19:23.286Z,60.90
2019-03-20T15:21:51.379Z,64.30
2019-03-20T15:24:19.060Z,68.70
2019-03-20T15:26:46.431Z,66.70
2019-03-20T15:29:13.839Z,67.60
2019-03-20T15:31:41.264Z,68.60
2019-03-20T15:34:08.899Z,74.30
2019-03-20T15:36:36.508Z,73.10
2019-03-20T15:39:06.021Z,78.30
2019-03-20T15:41:33.453Z,77.20
2019-03-20T15:44:02.641Z,78.20
2019-03-20T15:46:30.179Z,79.70
2019-03-20T15:48:57.624Z,81.40
2019-03-20T15:51:25.240Z,83.60
2019-03-20T15:53:52.910Z,83.90
2019-03-20T15:56:20.354Z,84.90
2019-03-20T15:58:47.994Z,84.90
2019-03-20T16:01:15.366Z,84.30
2019-03-20T16:03:42.996Z,84.50
2019-03-20T16:06:10.298Z,86.40
2019-03-20T16:08:37.836Z,83.60
2019-03-20T16:11:06.757Z,85.60
2019-03-20T16:13:34.429Z,87.70
2019-03-20T16:16:01.715Z,87.40
2019-03-20T16:18:29.053Z,86.70
2019-03-20T16:20:56.737Z,87.30
2019-03-20T16:23:24.670Z,90.20
2019-03-20T16:25:52.032Z,89.90
2019-03-20T16:28:19.327Z,88.90
2019-03-20T16:30:46.909Z,89.80
2019-03-20T16:33:14.372Z,89.30
2019-03-20T16:35:41.778Z,89.30
2019-03-20T16:38:09.400Z,90.00
2019-03-20T16:40:36.832Z,90.50
2019-03-20T16:43:04.384Z,90.40
2019-03-20T16:45:32.358Z,90.20
2019-03-20T16:47:59.785Z,90.90
2019-03-20T16:50:28.061Z,91.50
2019-03-20T16:52:55.477Z,91.00
2019-03-20T16:55:22.799Z,91.10
2019-03-20T16:57:50.266Z,91.00
2019-03-20T17:00:19.690Z,91.00
2019-03-20T17:02:47.097Z,91.80
2019-03-20T17:05:14.713Z,91.80
2019-03-20T17:07:42.112Z,91.70
2019-03-20T17:10:15.499Z,91.50
2019-03-20T17:12:42.925Z,91.70
2019-03-20T17:15:13.660Z,91.60
2019-03-20T17:17:40.972Z,91.40
2019-03-20T17:20:09.075Z,92.00
2019-03-20T17:22:41.937Z,92.30
2019-03-20T17:25:06.315Z,92.30
2019-03-20T17:27:34.007Z,92.40
2019-03-20T17:30:01.408Z,93.10
2019-03-20T17:32:28.732Z,93.60
2019-03-20T17:34:56.325Z,94.40
2019-03-20T17:37:23.937Z,94.00
2019-03-20T17:39:51.346Z,94.50
2019-03-20T17:42:18.769Z,94.50
2019-03-20T17:44:46.147Z,95.30
2019-03-20T17:47:13.893Z,95.60
2019-03-20T17:49:41.543Z,95.80
2019-03-20T17:52:09.039Z,95.80
2019-03-20T17:54:36.710Z,95.70
2019-03-20T17:57:04.044Z,96.20
2019-03-20T17:59:31.486Z,95.90
2019-03-20T18:01:58.823Z,96.00
2019-03-20T18:04:26.119Z,96.30
2019-03-20T18:06:53.590Z,96.30
2019-03-20T18:09:21.254Z,96.80
2019-03-20T18:11:48.548Z,97.10
2019-03-20T18:14:16.134Z,97.10
2019-03-20T18:16:43.517Z,97.50
2019-03-20T18:19:10.933Z,97.30
2019-03-20T18:21:38.331Z,98.30
2019-03-20T18:24:06.030Z,98.10
2019-03-20T18:26:33.705Z,97.90
2019-03-20T18:29:01.092Z,97.40
2019-03-20T18:31:28.789Z,97.30
2019-03-20T18:33:56.368Z,97.40
2019-03-20T18:36:23.694Z,98.10
2019-03-20T18:38:51.032Z,97.90
2019-03-20T18:41:18.387Z,98.00
2019-03-20T18:43:45.722Z,98.20
2019-03-20T18:46:13.125Z,98.20
2019-03-20T18:48:40.655Z,99.10
2019-03-20T18:51:08.096Z,99.30
2019-03-20T18:53:35.563Z,99.60
2019-03-20T18:56:03.294Z,99.60
2019-03-20T18:58:30.699Z,99.30
2019-03-20T19:00:58.026Z,99.60
2019-03-20T19:03:25.821Z,99.50
2019-03-20T19:05:59.528Z,99.30
2019-03-20T19:08:27.013Z,99.70
2019-03-20T19:10:54.787Z,99.90
2019-03-20T19:13:24.375Z,99.60
2019-03-20T19:15:51.772Z,99.40
2019-03-20T19:18:19.742Z,99.70
2019-03-20T19:20:47.062Z,99.40
2019-03-20T19:23:14.611Z,99.80
2019-03-20T19:25:42.335Z,99.60
2019-03-20T19:28:10.221Z,99.90
2019-03-20T19:30:37.675Z,99.90
2019-03-20T19:33:05.037Z,99.90
2019-03-20T19:35:32.729Z,99.90
2019-03-20T19:38:00.183Z,99.90
2019-03-20T19:40:27.574Z,99.90
2019-03-20T19:42:54.994Z,99.90
2019-03-20T19:45:22.394Z,99.90
2019-03-20T19:47:49.706Z,99.90
2019-03-20T19:50:17.125Z,99.90
2019-03-20T19:52:44.803Z,99.90
2019-03-20T19:55:12.289Z,99.90
2019-03-20T19:57:39.695Z,99.90
2019-03-20T20:00:09.652Z,99.90
2019-03-20T20:02:37.345Z,99.90
2019-03-20T20:05:15.737Z,99.90
2019-03-20T20:07:37.127Z,99.90
2019-03-20T20:10:05.180Z,99.90
2019-03-20T20:12:32.618Z,99.90
2019-03-20T20:15:00.319Z,99.90
2019-03-20T20:17:28.010Z,99.90
2019-03-20T20:19:55.497Z,99.90
2019-03-20T20:22:23.659Z,99.90
2019-03-20T20:24:51.062Z,99.90
2019-03-20T20:27:18.743Z,99.90
2019-03-20T20:29:46.137Z,99.90
2019-03-20T20:32:13.838Z,99.90
2019-03-20T20:34:41.196Z,99.90
2019-03-20T20:37:08.624Z,99.90
2019-03-20T20:39:36.030Z,99.90
2019-03-20T20:42:03.635Z,99.90
2019-03-20T20:44:30.934Z,99.90
2019-03-20T20:46:58.225Z,99.90
2019-03-20T20:49:32.238Z,99.90
2019-03-20T20:51:59.758Z,99.90
2019-03-20T20:54:27.131Z,99.90
2019-03-20T20:56:54.802Z,99.90
2019-03-20T20:59:22.224Z,99.90
2019-03-20T21:01:49.674Z,99.90
2019-03-20T21:04:16.960Z,99.90
2019-03-20T21:06:44.420Z,99.90
2019-03-20T21:09:11.701Z,99.90
2019-03-20T21:11:46.940Z,99.90
2019-03-20T21:14:14.083Z,99.90
2019-03-20T21:16:44.072Z,99.90
2019-03-20T21:19:39.316Z,99.90
2019-03-20T21:23:01.132Z,99.90
2019-03-20T21:25:29.291Z,99.90
2019-03-20T21:28:53.368Z,99.90
2019-03-20T21:31:31.185Z,99.90
2019-03-20T21:35:04.460Z,99.90
2019-03-20T21:38:06.576Z,99.90
2019-03-20T21:41:00.558Z,99.90
2019-03-20T21:43:55.370Z,99.90
2019-03-20T21:46:54.852Z,99.90
2019-03-20T21:49:22.784Z,99.90
2019-03-20T21:51:51.035Z,99.90
2019-03-20T21:55:03.288Z,99.90
2019-03-20T21:58:08.231Z,99.90
2019-03-20T22:01:13.430Z,99.90
2019-03-20T22:03:43.764Z,99.90
2019-03-20T22:07:05.375Z,99.90
2019-03-20T22:10:13.331Z,99.90
2019-03-20T22:12:56.516Z,99.90
2019-03-20T22:15:45.701Z,99.90
2019-03-20T22:18:30.030Z,99.90
2019-03-20T22:21:10.602Z,99.90
2019-03-20T22:24:15.377Z,99.90
2019-03-20T22:27:25.401Z,99.90
2019-03-20T22:29:53.345Z,99.90
2019-03-20T22:33:11.062Z,99.90
2019-03-20T22:36:00.378Z,99.90
2019-03-20T22:39:24.040Z,99.90
2019-03-20T22:42:17.795Z,99.90
2019-03-20T22:45:16.868Z,99.90
2019-03-20T22:48:16.473Z,99.90
2019-03-20T22:51:14.028Z,99.90
2019-03-20T22:54:07.754Z,99.90
2019-03-20T22:57:00.971Z,99.90
2019-03-20T22:59:29.290Z,99.90
2019-03-20T23:02:04.845Z,99.90
2019-03-20T23:04:35.716Z,99.90
2019-03-20T23:07:03.542Z,99.90
2019-03-20T23:09:31.784Z,99.90
2019-03-20T23:12:01.821Z,99.90
2019-03-20T23:14:29.966Z,99.90
2019-03-20T23:16:57.905Z,99.90
2019-03-20T23:19:25.988Z,99.90
2019-03-20T23:21:53.805Z,99.90
2019-03-20T23:24:21.756Z,99.90
2019-03-20T23:26:49.940Z,99.90
2019-03-20T23:29:18.359Z,99.90
2019-03-20T23:31:46.292Z,99.90
2019-03-20T23:34:14.117Z,99.90
2019-03-20T23:36:42.595Z,99.90
2019-03-20T23:39:10.564Z,99.90
2019-03-20T23:41:38.510Z,99.90
2019-03-20T23:44:06.424Z,99.90
2019-03-20T23:46:34.573Z,99.90
2019-03-20T23:49:06.396Z,99.90
2019-03-20T23:51:34.386Z,99.90
2019-03-20T23:54:02.215Z,99.90
2019-03-20T23:56:31.615Z,99.90
2019-03-20T23:58:59.510Z,99.90
